Barling, Arkansas
Current Conditions -  °F | °C
As of 6:53 AM on Thursday 27 Nov 2014 (Local Time) from KFSM Reporting Station
Clear Clear  
Wind Chill: 20°   Ceiling: Unl
Heat Index: 29°   Visibility: 10mi
Dew Point: 24°   Wind: 10mph
Humidity: 82%   Direction: 270°W
Pressure: 30.5"   Gusts: NA
Location:  35.33°N, 94.3°W
Report Text: KFSM 271253Z 27009KT 10SM CLR M02/M04 A3050 RMK AO2 SLP332 T10171044
Loading
Personal Weather Stations






























Interactive Weather Map New forecast layout! Learn more

10-Day Weather Forecast

Advertisements
Track Severe Weather on mobile